sensor_id;sensor_type;location;lat;lon;timestamp;P1;durP1;ratioP1;P2;durP2;ratioP2
16246;SDS011;8231;50.866;7.944;2024-03-22T00:01:01;27.23;;;16.60;;
16246;SDS011;8231;50.866;7.944;2024-03-22T00:03:28;24.20;;;16.10;;
16246;SDS011;8231;50.866;7.944;2024-03-22T00:05:57;21.50;;;15.45;;
16246;SDS011;8231;50.866;7.944;2024-03-22T00:08:23;28.15;;;21.88;;
16246;SDS011;8231;50.866;7.944;2024-03-22T00:10:50;29.05;;;17.70;;
16246;SDS011;8231;50.866;7.944;2024-03-22T00:13:16;29.95;;;18.40;;
16246;SDS011;8231;50.866;7.944;2024-03-22T00:15:44;30.55;;;16.95;;
16246;SDS011;8231;50.866;7.944;2024-03-22T00:18:11;27.20;;;17.58;;
16246;SDS011;8231;50.866;7.944;2024-03-22T00:20:39;28.30;;;17.73;;
16246;SDS011;8231;50.866;7.944;2024-03-22T00:23:05;29.83;;;17.83;;
16246;SDS011;8231;50.866;7.944;2024-03-22T00:25:33;33.95;;;21.02;;
16246;SDS011;8231;50.866;7.944;2024-03-22T00:27:59;31.63;;;18.83;;
16246;SDS011;8231;50.866;7.944;2024-03-22T00:30:26;28.38;;;17.45;;
16246;SDS011;8231;50.866;7.944;2024-03-22T00:32:53;26.65;;;18.73;;
16246;SDS011;8231;50.866;7.944;2024-03-22T00:35:20;30.23;;;23.33;;
16246;SDS011;8231;50.866;7.944;2024-03-22T00:37:48;30.65;;;20.40;;
16246;SDS011;8231;50.866;7.944;2024-03-22T00:40:15;28.88;;;19.17;;
16246;SDS011;8231;50.866;7.944;2024-03-22T00:42:43;30.15;;;20.45;;
16246;SDS011;8231;50.866;7.944;2024-03-22T00:45:11;30.15;;;19.50;;
16246;SDS011;8231;50.866;7.944;2024-03-22T00:47:37;24.25;;;16.85;;
16246;SDS011;8231;50.866;7.944;2024-03-22T00:50:05;26.52;;;19.70;;
16246;SDS011;8231;50.866;7.944;2024-03-22T00:52:32;28.20;;;23.13;;
16246;SDS011;8231;50.866;7.944;2024-03-22T00:55:01;29.40;;;21.38;;
16246;SDS011;8231;50.866;7.944;2024-03-22T00:57:27;27.17;;;21.80;;
16246;SDS011;8231;50.866;7.944;2024-03-22T00:59:55;29.58;;;20.42;;
16246;SDS011;8231;50.866;7.944;2024-03-22T01:02:21;32.97;;;19.88;;
16246;SDS011;8231;50.866;7.944;2024-03-22T01:04:48;30.05;;;20.88;;
16246;SDS011;8231;50.866;7.944;2024-03-22T01:07:15;30.92;;;22.45;;
16246;SDS011;8231;50.866;7.944;2024-03-22T01:09:42;28.33;;;20.02;;
16246;SDS011;8231;50.866;7.944;2024-03-22T01:12:11;28.15;;;20.02;;
16246;SDS011;8231;50.866;7.944;2024-03-22T01:14:38;30.48;;;20.35;;
16246;SDS011;8231;50.866;7.944;2024-03-22T01:17:05;27.38;;;20.40;;
16246;SDS011;8231;50.866;7.944;2024-03-22T01:19:32;36.92;;;21.88;;
16246;SDS011;8231;50.866;7.944;2024-03-22T01:21:59;25.40;;;16.52;;
16246;SDS011;8231;50.866;7.944;2024-03-22T01:24:26;26.58;;;17.88;;
16246;SDS011;8231;50.866;7.944;2024-03-22T01:26:52;25.38;;;16.58;;
16246;SDS011;8231;50.866;7.944;2024-03-22T01:29:21;25.80;;;17.90;;
16246;SDS011;8231;50.866;7.944;2024-03-22T01:31:48;29.33;;;23.20;;
16246;SDS011;8231;50.866;7.944;2024-03-22T01:34:15;32.17;;;23.38;;
16246;SDS011;8231;50.866;7.944;2024-03-22T01:36:41;26.45;;;21.33;;
16246;SDS011;8231;50.866;7.944;2024-03-22T01:39:09;29.52;;;23.50;;
16246;SDS011;8231;50.866;7.944;2024-03-22T01:41:35;27.40;;;22.30;;
16246;SDS011;8231;50.866;7.944;2024-03-22T01:44:02;29.38;;;22.85;;
16246;SDS011;8231;50.866;7.944;2024-03-22T01:46:30;28.88;;;21.58;;
16246;SDS011;8231;50.866;7.944;2024-03-22T01:48:57;31.55;;;23.20;;
16246;SDS011;8231;50.866;7.944;2024-03-22T01:51:24;29.05;;;22.80;;
16246;SDS011;8231;50.866;7.944;2024-03-22T01:53:51;26.27;;;20.60;;
16246;SDS011;8231;50.866;7.944;2024-03-22T01:56:19;25.90;;;20.77;;
16246;SDS011;8231;50.866;7.944;2024-03-22T01:58:46;28.60;;;21.90;;
16246;SDS011;8231;50.866;7.944;2024-03-22T02:01:13;29.33;;;21.70;;
16246;SDS011;8231;50.866;7.944;2024-03-22T02:03:42;27.63;;;21.52;;
16246;SDS011;8231;50.866;7.944;2024-03-22T02:06:08;27.75;;;21.60;;
16246;SDS011;8231;50.866;7.944;2024-03-22T02:08:36;26.67;;;20.73;;
16246;SDS011;8231;50.866;7.944;2024-03-22T02:11:03;27.00;;;21.30;;
16246;SDS011;8231;50.866;7.944;2024-03-22T02:13:31;25.00;;;20.27;;
16246;SDS011;8231;50.866;7.944;2024-03-22T02:15:58;31.88;;;23.50;;
16246;SDS011;8231;50.866;7.944;2024-03-22T02:18:25;30.88;;;22.48;;
16246;SDS011;8231;50.866;7.944;2024-03-22T02:20:53;26.83;;;20.95;;
16246;SDS011;8231;50.866;7.944;2024-03-22T02:23:26;31.35;;;23.42;;
16246;SDS011;8231;50.866;7.944;2024-03-22T02:25:57;28.00;;;21.73;;
16246;SDS011;8231;50.866;7.944;2024-03-22T02:28:24;27.98;;;20.42;;
16246;SDS011;8231;50.866;7.944;2024-03-22T02:30:50;29.38;;;22.85;;
16246;SDS011;8231;50.866;7.944;2024-03-22T02:33:17;29.95;;;21.45;;
16246;SDS011;8231;50.866;7.944;2024-03-22T02:35:45;27.92;;;22.55;;
16246;SDS011;8231;50.866;7.944;2024-03-22T02:38:13;30.23;;;22.25;;
16246;SDS011;8231;50.866;7.944;2024-03-22T02:40:42;29.92;;;22.15;;
16246;SDS011;8231;50.866;7.944;2024-03-22T02:43:10;27.80;;;20.50;;
16246;SDS011;8231;50.866;7.944;2024-03-22T02:45:36;29.48;;;22.70;;
16246;SDS011;8231;50.866;7.944;2024-03-22T02:48:04;27.13;;;21.35;;
16246;SDS011;8231;50.866;7.944;2024-03-22T02:50:32;27.25;;;22.00;;
16246;SDS011;8231;50.866;7.944;2024-03-22T02:52:59;29.38;;;22.50;;
16246;SDS011;8231;50.866;7.944;2024-03-22T02:55:26;32.65;;;22.58;;
16246;SDS011;8231;50.866;7.944;2024-03-22T02:57:55;27.60;;;21.50;;
16246;SDS011;8231;50.866;7.944;2024-03-22T03:00:22;29.25;;;20.77;;
16246;SDS011;8231;50.866;7.944;2024-03-22T03:02:49;29.58;;;22.25;;
16246;SDS011;8231;50.866;7.944;2024-03-22T03:05:16;24.27;;;19.02;;
16246;SDS011;8231;50.866;7.944;2024-03-22T03:07:43;28.50;;;22.15;;
16246;SDS011;8231;50.866;7.944;2024-03-22T03:10:10;26.67;;;21.17;;
16246;SDS011;8231;50.866;7.944;2024-03-22T03:12:37;27.65;;;20.60;;
16246;SDS011;8231;50.866;7.944;2024-03-22T03:15:05;27.55;;;21.20;;
16246;SDS011;8231;50.866;7.944;2024-03-22T03:17:33;27.38;;;20.88;;
16246;SDS011;8231;50.866;7.944;2024-03-22T03:19:59;27.00;;;21.38;;
16246;SDS011;8231;50.866;7.944;2024-03-22T03:22:26;24.80;;;19.55;;
16246;SDS011;8231;50.866;7.944;2024-03-22T03:24:53;24.75;;;20.27;;
16246;SDS011;8231;50.866;7.944;2024-03-22T03:27:21;29.90;;;21.17;;
16246;SDS011;8231;50.866;7.944;2024-03-22T03:29:48;23.98;;;20.30;;
16246;SDS011;8231;50.866;7.944;2024-03-22T03:32:17;26.98;;;20.35;;
16246;SDS011;8231;50.866;7.944;2024-03-22T03:34:43;28.02;;;20.67;;
16246;SDS011;8231;50.866;7.944;2024-03-22T03:37:11;31.15;;;21.05;;
16246;SDS011;8231;50.866;7.944;2024-03-22T03:39:38;28.30;;;22.75;;
16246;SDS011;8231;50.866;7.944;2024-03-22T03:42:05;27.85;;;21.00;;
16246;SDS011;8231;50.866;7.944;2024-03-22T03:44:32;28.98;;;21.63;;
16246;SDS011;8231;50.866;7.944;2024-03-22T03:46:59;31.00;;;21.27;;
16246;SDS011;8231;50.866;7.944;2024-03-22T03:49:28;27.48;;;21.42;;
16246;SDS011;8231;50.866;7.944;2024-03-22T03:51:55;26.38;;;20.83;;
16246;SDS011;8231;50.866;7.944;2024-03-22T03:54:21;29.08;;;20.80;;
16246;SDS011;8231;50.866;7.944;2024-03-22T03:56:49;27.95;;;21.15;;
16246;SDS011;8231;50.866;7.944;2024-03-22T03:59:15;26.35;;;21.25;;
16246;SDS011;8231;50.866;7.944;2024-03-22T04:01:43;31.52;;;22.45;;
16246;SDS011;8231;50.866;7.944;2024-03-22T04:04:09;40.55;;;26.63;;
16246;SDS011;8231;50.866;7.944;2024-03-22T04:06:39;29.77;;;23.30;;
16246;SDS011;8231;50.866;7.944;2024-03-22T04:09:05;27.55;;;22.13;;
16246;SDS011;8231;50.866;7.944;2024-03-22T04:11:33;28.50;;;21.23;;
16246;SDS011;8231;50.866;7.944;2024-03-22T04:13:59;26.92;;;20.40;;
16246;SDS011;8231;50.866;7.944;2024-03-22T04:16:26;30.25;;;23.67;;
16246;SDS011;8231;50.866;7.944;2024-03-22T04:18:52;29.77;;;22.90;;
16246;SDS011;8231;50.866;7.944;2024-03-22T04:21:20;23.80;;;19.60;;
16246;SDS011;8231;50.866;7.944;2024-03-22T04:23:47;27.60;;;21.77;;
16246;SDS011;8231;50.866;7.944;2024-03-22T04:26:15;29.67;;;20.83;;
16246;SDS011;8231;50.866;7.944;2024-03-22T04:28:41;24.70;;;20.70;;
16246;SDS011;8231;50.866;7.944;2024-03-22T04:31:08;29.65;;;22.30;;
16246;SDS011;8231;50.866;7.944;2024-03-22T04:33:35;27.75;;;21.55;;
16246;SDS011;8231;50.866;7.944;2024-03-22T04:36:03;27.10;;;21.20;;
16246;SDS011;8231;50.866;7.944;2024-03-22T04:38:31;26.05;;;20.92;;
16246;SDS011;8231;50.866;7.944;2024-03-22T04:40:59;25.70;;;19.95;;
16246;SDS011;8231;50.866;7.944;2024-03-22T04:43:27;25.02;;;20.70;;
16246;SDS011;8231;50.866;7.944;2024-03-22T04:45:54;29.00;;;21.42;;
16246;SDS011;8231;50.866;7.944;2024-03-22T04:48:21;29.92;;;23.73;;
16246;SDS011;8231;50.866;7.944;2024-03-22T04:50:49;31.73;;;23.52;;
16246;SDS011;8231;50.866;7.944;2024-03-22T04:53:17;30.83;;;22.25;;
16246;SDS011;8231;50.866;7.944;2024-03-22T04:55:44;30.40;;;22.67;;
16246;SDS011;8231;50.866;7.944;2024-03-22T04:58:14;27.75;;;21.20;;
16246;SDS011;8231;50.866;7.944;2024-03-22T05:00:41;28.67;;;22.27;;
16246;SDS011;8231;50.866;7.944;2024-03-22T05:03:09;27.13;;;19.98;;
16246;SDS011;8231;50.866;7.944;2024-03-22T05:05:37;28.20;;;20.85;;
16246;SDS011;8231;50.866;7.944;2024-03-22T05:08:05;28.50;;;20.92;;
16246;SDS011;8231;50.866;7.944;2024-03-22T05:10:32;27.10;;;20.52;;
16246;SDS011;8231;50.866;7.944;2024-03-22T05:13:00;29.85;;;22.50;;
16246;SDS011;8231;50.866;7.944;2024-03-22T05:15:28;31.58;;;23.75;;
16246;SDS011;8231;50.866;7.944;2024-03-22T05:17:56;25.13;;;19.23;;
16246;SDS011;8231;50.866;7.944;2024-03-22T05:20:23;25.98;;;18.98;;
16246;SDS011;8231;50.866;7.944;2024-03-22T05:22:50;26.80;;;20.50;;
16246;SDS011;8231;50.866;7.944;2024-03-22T05:25:17;25.33;;;20.05;;
16246;SDS011;8231;50.866;7.944;2024-03-22T05:27:45;25.40;;;21.02;;
16246;SDS011;8231;50.866;7.944;2024-03-22T05:30:11;23.98;;;19.17;;
16246;SDS011;8231;50.866;7.944;2024-03-22T05:32:41;31.00;;;24.10;;
16246;SDS011;8231;50.866;7.944;2024-03-22T05:35:07;29.70;;;23.58;;
16246;SDS011;8231;50.866;7.944;2024-03-22T05:37:35;29.85;;;22.38;;
16246;SDS011;8231;50.866;7.944;2024-03-22T05:40:01;34.38;;;25.30;;
16246;SDS011;8231;50.866;7.944;2024-03-22T05:42:29;32.63;;;25.58;;
16246;SDS011;8231;50.866;7.944;2024-03-22T05:44:56;31.52;;;24.20;;
16246;SDS011;8231;50.866;7.944;2024-03-22T05:47:23;28.60;;;23.83;;
16246;SDS011;8231;50.866;7.944;2024-03-22T05:49:50;37.38;;;30.10;;
16246;SDS011;8231;50.866;7.944;2024-03-22T05:52:18;29.55;;;24.73;;
16246;SDS011;8231;50.866;7.944;2024-03-22T05:54:44;31.25;;;23.83;;
16246;SDS011;8231;50.866;7.944;2024-03-22T05:57:11;31.90;;;25.42;;
16246;SDS011;8231;50.866;7.944;2024-03-22T05:59:38;32.45;;;26.02;;
16246;SDS011;8231;50.866;7.944;2024-03-22T06:02:05;28.33;;;23.88;;
16246;SDS011;8231;50.866;7.944;2024-03-22T06:04:31;28.88;;;22.80;;
16246;SDS011;8231;50.866;7.944;2024-03-22T06:07:00;29.02;;;22.95;;
16246;SDS011;8231;50.866;7.944;2024-03-22T06:09:28;27.23;;;22.42;;
16246;SDS011;8231;50.866;7.944;2024-03-22T06:12:03;28.23;;;21.88;;
16246;SDS011;8231;50.866;7.944;2024-03-22T06:14:30;26.75;;;22.58;;
16246;SDS011;8231;50.866;7.944;2024-03-22T06:16:57;28.08;;;21.60;;
16246;SDS011;8231;50.866;7.944;2024-03-22T06:19:24;31.58;;;25.48;;
16246;SDS011;8231;50.866;7.944;2024-03-22T06:21:51;33.17;;;25.77;;
16246;SDS011;8231;50.866;7.944;2024-03-22T06:24:19;25.55;;;21.60;;
16246;SDS011;8231;50.866;7.944;2024-03-22T06:26:46;26.83;;;22.17;;
16246;SDS011;8231;50.866;7.944;2024-03-22T06:29:12;24.90;;;21.88;;
16246;SDS011;8231;50.866;7.944;2024-03-22T06:31:42;26.42;;;21.40;;
16246;SDS011;8231;50.866;7.944;2024-03-22T06:34:08;30.73;;;23.25;;
16246;SDS011;8231;50.866;7.944;2024-03-22T06:36:36;29.77;;;23.13;;
16246;SDS011;8231;50.866;7.944;2024-03-22T06:39:02;25.83;;;21.75;;
16246;SDS011;8231;50.866;7.944;2024-03-22T06:41:33;28.73;;;22.42;;
16246;SDS011;8231;50.866;7.944;2024-03-22T06:44:00;28.05;;;21.90;;
16246;SDS011;8231;50.866;7.944;2024-03-22T06:46:28;31.02;;;23.38;;
16246;SDS011;8231;50.866;7.944;2024-03-22T06:48:54;24.90;;;20.70;;
16246;SDS011;8231;50.866;7.944;2024-03-22T06:51:21;29.17;;;21.25;;
16246;SDS011;8231;50.866;7.944;2024-03-22T06:53:48;20.85;;;17.48;;
16246;SDS011;8231;50.866;7.944;2024-03-22T06:56:15;21.67;;;17.63;;
16246;SDS011;8231;50.866;7.944;2024-03-22T06:58:43;20.15;;;15.90;;
16246;SDS011;8231;50.866;7.944;2024-03-22T07:01:11;17.25;;;13.93;;
16246;SDS011;8231;50.866;7.944;2024-03-22T07:03:37;16.60;;;14.18;;
16246;SDS011;8231;50.866;7.944;2024-03-22T07:06:04;16.42;;;11.95;;
16246;SDS011;8231;50.866;7.944;2024-03-22T07:08:34;16.35;;;12.93;;
16246;SDS011;8231;50.866;7.944;2024-03-22T07:11:04;16.30;;;12.77;;
16246;SDS011;8231;50.866;7.944;2024-03-22T07:13:31;15.77;;;12.60;;
16246;SDS011;8231;50.866;7.944;2024-03-22T07:16:00;14.15;;;12.40;;
16246;SDS011;8231;50.866;7.944;2024-03-22T07:18:26;13.48;;;11.45;;
16246;SDS011;8231;50.866;7.944;2024-03-22T07:20:54;12.85;;;11.48;;
16246;SDS011;8231;50.866;7.944;2024-03-22T07:23:20;14.73;;;11.32;;
16246;SDS011;8231;50.866;7.944;2024-03-22T07:25:47;15.73;;;11.40;;
16246;SDS011;8231;50.866;7.944;2024-03-22T07:28:14;12.00;;;10.63;;
16246;SDS011;8231;50.866;7.944;2024-03-22T07:30:41;15.05;;;11.68;;
16246;SDS011;8231;50.866;7.944;2024-03-22T07:33:09;12.30;;;10.90;;
16246;SDS011;8231;50.866;7.944;2024-03-22T07:35:38;13.65;;;11.05;;
16246;SDS011;8231;50.866;7.944;2024-03-22T07:38:05;12.85;;;10.55;;
16246;SDS011;8231;50.866;7.944;2024-03-22T07:40:32;11.90;;;10.65;;
16246;SDS011;8231;50.866;7.944;2024-03-22T07:42:58;14.68;;;11.40;;
16246;SDS011;8231;50.866;7.944;2024-03-22T07:45:31;13.35;;;11.38;;
16246;SDS011;8231;50.866;7.944;2024-03-22T07:47:57;15.18;;;11.73;;
16246;SDS011;8231;50.866;7.944;2024-03-22T07:50:26;13.23;;;11.82;;
16246;SDS011;8231;50.866;7.944;2024-03-22T07:52:53;14.45;;;11.50;;
16246;SDS011;8231;50.866;7.944;2024-03-22T07:55:21;13.88;;;12.25;;
16246;SDS011;8231;50.866;7.944;2024-03-22T07:57:48;16.27;;;11.65;;
16246;SDS011;8231;50.866;7.944;2024-03-22T08:00:16;14.60;;;10.85;;
16246;SDS011;8231;50.866;7.944;2024-03-22T08:02:42;14.30;;;12.32;;
16246;SDS011;8231;50.866;7.944;2024-03-22T08:05:09;15.32;;;12.25;;
16246;SDS011;8231;50.866;7.944;2024-03-22T08:07:37;13.48;;;11.32;;
16246;SDS011;8231;50.866;7.944;2024-03-22T08:10:04;11.73;;;9.88;;
16246;SDS011;8231;50.866;7.944;2024-03-22T08:12:31;16.48;;;11.95;;
16246;SDS011;8231;50.866;7.944;2024-03-22T08:14:59;14.30;;;11.63;;
16246;SDS011;8231;50.866;7.944;2024-03-22T08:17:25;13.60;;;11.35;;
16246;SDS011;8231;50.866;7.944;2024-03-22T08:19:52;13.30;;;11.95;;
16246;SDS011;8231;50.866;7.944;2024-03-22T08:22:19;13.52;;;10.60;;
16246;SDS011;8231;50.866;7.944;2024-03-22T08:24:47;13.25;;;11.40;;
16246;SDS011;8231;50.866;7.944;2024-03-22T08:27:14;15.48;;;11.73;;
16246;SDS011;8231;50.866;7.944;2024-03-22T08:29:41;11.77;;;10.57;;
16246;SDS011;8231;50.866;7.944;2024-03-22T08:32:07;13.63;;;11.65;;
16246;SDS011;8231;50.866;7.944;2024-03-22T08:34:35;11.38;;;10.32;;
16246;SDS011;8231;50.866;7.944;2024-03-22T08:37:01;12.57;;;11.27;;
16246;SDS011;8231;50.866;7.944;2024-03-22T08:39:29;14.25;;;11.85;;
16246;SDS011;8231;50.866;7.944;2024-03-22T08:41:57;12.07;;;10.77;;
16246;SDS011;8231;50.866;7.944;2024-03-22T08:44:24;12.15;;;10.95;;
16246;SDS011;8231;50.866;7.944;2024-03-22T08:46:51;14.25;;;12.77;;
16246;SDS011;8231;50.866;7.944;2024-03-22T08:49:18;12.88;;;11.38;;
16246;SDS011;8231;50.866;7.944;2024-03-22T08:51:44;15.63;;;11.57;;
16246;SDS011;8231;50.866;7.944;2024-03-22T08:54:13;14.85;;;12.13;;
16246;SDS011;8231;50.866;7.944;2024-03-22T08:56:40;12.68;;;11.38;;
16246;SDS011;8231;50.866;7.944;2024-03-22T08:59:08;11.25;;;10.13;;
16246;SDS011;8231;50.866;7.944;2024-03-22T09:01:35;14.15;;;12.70;;
16246;SDS011;8231;50.866;7.944;2024-03-22T09:04:03;13.15;;;11.10;;
16246;SDS011;8231;50.866;7.944;2024-03-22T09:06:29;15.07;;;11.60;;
16246;SDS011;8231;50.866;7.944;2024-03-22T09:08:57;13.05;;;11.68;;
16246;SDS011;8231;50.866;7.944;2024-03-22T09:11:23;12.73;;;11.52;;
16246;SDS011;8231;50.866;7.944;2024-03-22T09:13:51;14.07;;;12.43;;
16246;SDS011;8231;50.866;7.944;2024-03-22T09:16:19;15.65;;;13.40;;
16246;SDS011;8231;50.866;7.944;2024-03-22T09:18:47;15.48;;;11.88;;
16246;SDS011;8231;50.866;7.944;2024-03-22T09:21:13;12.55;;;11.25;;
16246;SDS011;8231;50.866;7.944;2024-03-22T09:23:40;13.68;;;12.27;;
16246;SDS011;8231;50.866;7.944;2024-03-22T09:26:06;15.65;;;14.05;;
16246;SDS011;8231;50.866;7.944;2024-03-22T09:28:34;14.73;;;12.00;;
16246;SDS011;8231;50.866;7.944;2024-03-22T09:31:03;17.45;;;14.95;;
16246;SDS011;8231;50.866;7.944;2024-03-22T09:33:33;17.10;;;13.65;;
16246;SDS011;8231;50.866;7.944;2024-03-22T09:36:00;14.77;;;12.55;;
16246;SDS011;8231;50.866;7.944;2024-03-22T09:38:28;15.80;;;14.13;;
16246;SDS011;8231;50.866;7.944;2024-03-22T09:40:54;15.98;;;13.07;;
16246;SDS011;8231;50.866;7.944;2024-03-22T09:43:21;16.73;;;12.15;;
16246;SDS011;8231;50.866;7.944;2024-03-22T09:45:48;15.15;;;12.57;;
16246;SDS011;8231;50.866;7.944;2024-03-22T09:48:16;13.70;;;12.30;;
16246;SDS011;8231;50.866;7.944;2024-03-22T09:50:45;15.25;;;12.55;;
16246;SDS011;8231;50.866;7.944;2024-03-22T09:53:13;13.38;;;11.98;;
16246;SDS011;8231;50.866;7.944;2024-03-22T09:55:43;15.52;;;13.40;;
16246;SDS011;8231;50.866;7.944;2024-03-22T09:58:11;15.82;;;12.52;;
16246;SDS011;8231;50.866;7.944;2024-03-22T10:00:40;13.32;;;11.98;;
16246;SDS011;8231;50.866;7.944;2024-03-22T10:03:07;15.68;;;12.98;;
16246;SDS011;8231;50.866;7.944;2024-03-22T10:05:35;15.63;;;13.85;;
16246;SDS011;8231;50.866;7.944;2024-03-22T10:08:04;15.43;;;13.25;;
16246;SDS011;8231;50.866;7.944;2024-03-22T10:10:31;12.10;;;10.90;;
16246;SDS011;8231;50.866;7.944;2024-03-22T10:13:00;15.73;;;14.05;;
16246;SDS011;8231;50.866;7.944;2024-03-22T10:15:26;14.10;;;12.63;;
16246;SDS011;8231;50.866;7.944;2024-03-22T10:17:56;13.18;;;11.85;;
16246;SDS011;8231;50.866;7.944;2024-03-22T10:20:23;14.90;;;13.40;;
16246;SDS011;8231;50.866;7.944;2024-03-22T10:22:54;15.63;;;14.07;;
16246;SDS011;8231;50.866;7.944;2024-03-22T10:25:23;13.65;;;12.32;;
16246;SDS011;8231;50.866;7.944;2024-03-22T10:27:53;15.30;;;13.68;;
16246;SDS011;8231;50.866;7.944;2024-03-22T10:30:19;16.40;;;14.70;;
16246;SDS011;8231;50.866;7.944;2024-03-22T10:32:50;13.07;;;11.65;;
16246;SDS011;8231;50.866;7.944;2024-03-22T10:35:16;14.77;;;12.95;;
16246;SDS011;8231;50.866;7.944;2024-03-22T10:37:44;13.98;;;12.52;;
16246;SDS011;8231;50.866;7.944;2024-03-22T10:40:11;13.40;;;11.18;;
16246;SDS011;8231;50.866;7.944;2024-03-22T10:42:41;11.30;;;10.20;;
16246;SDS011;8231;50.866;7.944;2024-03-22T10:45:09;13.65;;;11.75;;
16246;SDS011;8231;50.866;7.944;2024-03-22T10:47:39;11.13;;;10.05;;
16246;SDS011;8231;50.866;7.944;2024-03-22T10:50:07;11.18;;;10.07;;
16246;SDS011;8231;50.866;7.944;2024-03-22T10:52:36;11.10;;;9.98;;
16246;SDS011;8231;50.866;7.944;2024-03-22T10:55:07;11.95;;;10.55;;
16246;SDS011;8231;50.866;7.944;2024-03-22T10:57:37;13.35;;;11.98;;
16246;SDS011;8231;50.866;7.944;2024-03-22T11:00:10;11.40;;;9.80;;
16246;SDS011;8231;50.866;7.944;2024-03-22T11:02:37;11.88;;;10.55;;
16246;SDS011;8231;50.866;7.944;2024-03-22T11:05:04;12.50;;;10.15;;
16246;SDS011;8231;50.866;7.944;2024-03-22T11:07:32;11.55;;;10.30;;
16246;SDS011;8231;50.866;7.944;2024-03-22T11:10:00;11.55;;;9.90;;
16246;SDS011;8231;50.866;7.944;2024-03-22T11:12:28;12.77;;;10.75;;
16246;SDS011;8231;50.866;7.944;2024-03-22T11:14:59;12.40;;;11.25;;
16246;SDS011;8231;50.866;7.944;2024-03-22T11:17:27;12.98;;;11.77;;
16246;SDS011;8231;50.866;7.944;2024-03-22T11:19:56;14.13;;;12.27;;
16246;SDS011;8231;50.866;7.944;2024-03-22T11:22:24;16.35;;;14.57;;
16246;SDS011;8231;50.866;7.944;2024-03-22T11:24:52;14.18;;;12.70;;
16246;SDS011;8231;50.866;7.944;2024-03-22T11:27:18;12.13;;;10.95;;
16246;SDS011;8231;50.866;7.944;2024-03-22T11:29:45;12.00;;;10.90;;
16246;SDS011;8231;50.866;7.944;2024-03-22T11:32:14;15.13;;;10.88;;
16246;SDS011;8231;50.866;7.944;2024-03-22T11:34:44;12.73;;;11.27;;
16246;SDS011;8231;50.866;7.944;2024-03-22T11:37:12;13.57;;;11.90;;
16246;SDS011;8231;50.866;7.944;2024-03-22T11:39:40;10.95;;;9.85;;
16246;SDS011;8231;50.866;7.944;2024-03-22T11:42:06;12.85;;;10.80;;
16246;SDS011;8231;50.866;7.944;2024-03-22T11:44:36;12.10;;;10.05;;
16246;SDS011;8231;50.866;7.944;2024-03-22T11:47:04;10.38;;;9.27;;
16246;SDS011;8231;50.866;7.944;2024-03-22T11:49:32;12.38;;;11.07;;
16246;SDS011;8231;50.866;7.944;2024-03-22T11:51:59;12.02;;;10.95;;
16246;SDS011;8231;50.866;7.944;2024-03-22T11:54:27;12.35;;;10.93;;
16246;SDS011;8231;50.866;7.944;2024-03-22T11:56:55;11.63;;;10.45;;
16246;SDS011;8231;50.866;7.944;2024-03-22T11:59:23;12.10;;;10.35;;
16246;SDS011;8231;50.866;7.944;2024-03-22T12:01:49;11.63;;;10.48;;
16246;SDS011;8231;50.866;7.944;2024-03-22T12:04:16;11.50;;;9.98;;
16246;SDS011;8231;50.866;7.944;2024-03-22T12:06:43;12.30;;;11.10;;
16246;SDS011;8231;50.866;7.944;2024-03-22T12:09:12;12.00;;;10.82;;
16246;SDS011;8231;50.866;7.944;2024-03-22T12:11:39;11.38;;;10.25;;
16246;SDS011;8231;50.866;7.944;2024-03-22T12:14:07;15.70;;;11.98;;
16246;SDS011;8231;50.866;7.944;2024-03-22T12:16:33;13.27;;;11.65;;
16246;SDS011;8231;50.866;7.944;2024-03-22T12:19:00;12.20;;;11.00;;
16246;SDS011;8231;50.866;7.944;2024-03-22T12:21:26;15.20;;;12.70;;
16246;SDS011;8231;50.866;7.944;2024-03-22T12:23:54;13.23;;;11.88;;
16246;SDS011;8231;50.866;7.944;2024-03-22T12:26:21;13.85;;;12.43;;
16246;SDS011;8231;50.866;7.944;2024-03-22T12:28:48;13.13;;;11.70;;
16246;SDS011;8231;50.866;7.944;2024-03-22T12:31:16;12.75;;;10.52;;
16246;SDS011;8231;50.866;7.944;2024-03-22T12:33:44;13.95;;;11.13;;
16246;SDS011;8231;50.866;7.944;2024-03-22T12:36:11;11.75;;;10.52;;
16246;SDS011;8231;50.866;7.944;2024-03-22T12:38:39;12.43;;;11.23;;
16246;SDS011;8231;50.866;7.944;2024-03-22T12:41:05;11.75;;;10.55;;
16246;SDS011;8231;50.866;7.944;2024-03-22T12:43:35;10.38;;;9.35;;
16246;SDS011;8231;50.866;7.944;2024-03-22T12:46:01;14.68;;;10.57;;
16246;SDS011;8231;50.866;7.944;2024-03-22T12:48:29;10.30;;;9.23;;
16246;SDS011;8231;50.866;7.944;2024-03-22T12:50:56;9.75;;;8.23;;
16246;SDS011;8231;50.866;7.944;2024-03-22T12:53:23;11.55;;;9.57;;
16246;SDS011;8231;50.866;7.944;2024-03-22T12:55:49;9.48;;;8.00;;
16246;SDS011;8231;50.866;7.944;2024-03-22T12:58:16;9.70;;;8.23;;
16246;SDS011;8231;50.866;7.944;2024-03-22T13:00:44;10.63;;;8.15;;
16246;SDS011;8231;50.866;7.944;2024-03-22T13:03:12;8.18;;;6.60;;
16246;SDS011;8231;50.866;7.944;2024-03-22T13:05:40;9.05;;;7.43;;
16246;SDS011;8231;50.866;7.944;2024-03-22T13:08:08;7.53;;;6.53;;
16246;SDS011;8231;50.866;7.944;2024-03-22T13:10:34;7.10;;;6.50;;
16246;SDS011;8231;50.866;7.944;2024-03-22T13:13:01;7.70;;;7.00;;
16246;SDS011;8231;50.866;7.944;2024-03-22T13:15:28;9.13;;;6.22;;
16246;SDS011;8231;50.866;7.944;2024-03-22T13:17:59;7.90;;;5.22;;
16246;SDS011;8231;50.866;7.944;2024-03-22T13:20:25;5.40;;;4.70;;
16246;SDS011;8231;50.866;7.944;2024-03-22T13:22:52;6.38;;;4.70;;
16246;SDS011;8231;50.866;7.944;2024-03-22T13:25:19;4.90;;;4.22;;
16246;SDS011;8231;50.866;7.944;2024-03-22T13:27:46;5.15;;;3.83;;
16246;SDS011;8231;50.866;7.944;2024-03-22T13:30:12;5.30;;;4.03;;
16246;SDS011;8231;50.866;7.944;2024-03-22T13:32:41;3.92;;;2.92;;
16246;SDS011;8231;50.866;7.944;2024-03-22T13:35:08;4.72;;;2.90;;
16246;SDS011;8231;50.866;7.944;2024-03-22T13:37:37;2.67;;;2.15;;
16246;SDS011;8231;50.866;7.944;2024-03-22T13:40:03;2.75;;;2.38;;
16246;SDS011;8231;50.866;7.944;2024-03-22T13:42:31;2.95;;;2.20;;
16246;SDS011;8231;50.866;7.944;2024-03-22T13:44:58;4.60;;;2.55;;
16246;SDS011;8231;50.866;7.944;2024-03-22T13:47:25;4.40;;;2.38;;
16246;SDS011;8231;50.866;7.944;2024-03-22T13:49:53;2.63;;;2.20;;
16246;SDS011;8231;50.866;7.944;2024-03-22T13:52:21;4.97;;;2.88;;
16246;SDS011;8231;50.866;7.944;2024-03-22T13:54:48;3.25;;;2.83;;
16246;SDS011;8231;50.866;7.944;2024-03-22T13:57:16;3.60;;;3.30;;
16246;SDS011;8231;50.866;7.944;2024-03-22T13:59:42;5.20;;;3.40;;
16246;SDS011;8231;50.866;7.944;2024-03-22T14:02:10;4.05;;;3.40;;
16246;SDS011;8231;50.866;7.944;2024-03-22T14:04:36;4.38;;;3.22;;
16246;SDS011;8231;50.866;7.944;2024-03-22T14:07:03;3.58;;;2.95;;
16246;SDS011;8231;50.866;7.944;2024-03-22T14:09:31;5.28;;;4.43;;
16246;SDS011;8231;50.866;7.944;2024-03-22T14:11:59;5.85;;;4.15;;
16246;SDS011;8231;50.866;7.944;2024-03-22T14:14:25;7.45;;;4.43;;
16246;SDS011;8231;50.866;7.944;2024-03-22T14:16:53;6.15;;;4.53;;
16246;SDS011;8231;50.866;7.944;2024-03-22T14:19:20;4.32;;;3.92;;
16246;SDS011;8231;50.866;7.944;2024-03-22T14:21:47;3.83;;;3.53;;
16246;SDS011;8231;50.866;7.944;2024-03-22T14:24:13;5.28;;;3.92;;
16246;SDS011;8231;50.866;7.944;2024-03-22T14:26:42;4.50;;;3.50;;
16246;SDS011;8231;50.866;7.944;2024-03-22T14:29:09;5.45;;;3.88;;
16246;SDS011;8231;50.866;7.944;2024-03-22T14:31:36;4.03;;;3.47;;
16246;SDS011;8231;50.866;7.944;2024-03-22T14:34:03;4.10;;;3.40;;
16246;SDS011;8231;50.866;7.944;2024-03-22T14:36:32;5.50;;;4.38;;
16246;SDS011;8231;50.866;7.944;2024-03-22T14:38:58;4.13;;;3.67;;